Terminal Aerodrome Forecast
Issued by NWS Wichita, KS

Home | Current Version | Previous Version | Graphics & Text | Print | Product List | Glossary On
Versions: 1 2 3 4 5 6 7 8 9 10 11 12 13 14 15 16 17 18 19 20 21 22 23 24 25 26 27 28 29 30 31 32
000
FTUS43 KICT 192119 AAC
TAFICT
TAF AMD
KICT 192119Z 1921/2018 20004KT 6SM BR SCT007 BKN015
      TEMPO 1921/2001 BKN009
     FM200300 19005KT 3SM BR SCT007 BKN015
     FM200800 19005KT 2SM BR BKN007
     FM201500 20012KT P6SM BKN020=

USA.gov is the U.S. government's official web portal to all federal, state and local government web resources and services.